Stations météo

réclame
Mon MeteoGroup
Le Puy, France (7471): Température de l'air & dewpoint: 17.04.2018 03:00:00 - 23.04.2018 03:00:00 (CEST)Le Puy, France (7471): Température de l'air 5cm: 17.04.2018 03:00:00 - 23.04.2018 03:00:00 (CEST)Le Puy, France (7471): Température de l'air -20cm & Température de l'air -100cm: 17.04.2018 03:00:00 - 23.04.2018 03:00:00 (CEST)Le Puy, France (7471): Vitesse du vent & gusts: 17.04.2018 03:00:00 - 23.04.2018 03:00:00 (CEST)Le Puy, France (7471): Direction du vent: 17.04.2018 03:00:00 - 23.04.2018 03:00:00 (CEST)Le Puy, France (7471): visibility: 17.04.2018 03:00:00 - 23.04.2018 03:00:00 (CEST)Le Puy, France (7471): Ensoleillement: 17.04.2018 03:00:00 - 23.04.2018 03:00:00 (CEST)Le Puy, France (7471): Quantités de précipitations: 17.04.2018 03:00:00 - 23.04.2018 03:00:00 (CEST)
Date & Time tt [°C] td [°C] tt 5cm [°C] tt -20cm [°C] tt -100cm [°C] ff [km/h] ff [knt] fx [km/h] fx [knt] dd vv [km] sd [min] rr [mm]
23.04.2018 03:00:00 8,6 5,2 5,7 13,4 8,4 3 2 7 4 SSE 20 0 0,0
23.04.2018 02:00:00 11,2 6,7 7,3 13,4 8,3 3 2 7 4 NNW 20 0 0,0
23.04.2018 01:00:00 10,8 6,0 7,1 13,4 8,3 0 0 7 4 N 20 0 0,0
23.04.2018 00:00:00 11,9 6,2 8,5 13,4 8,3 5 3 8 4 SW 20 0 0,0
22.04.2018 23:00:00 13,7 6,3 8,6 13,3 8,3 2 1 9 5 SW 20 0 0,0
22.04.2018 22:00:00 14,7 6,3 11,4 13,3 8,3 4 2 13 7 S 20 0 0,0
22.04.2018 21:00:00 16,6 7,2 15,1 13,2 8,3 8 4 26 14 S 20 0 0,0
22.04.2018 20:00:00 18,2 7,3 16,9 13,0 8,3 8 5 19 10 S 20 0 0,0
22.04.2018 19:00:00 20,5 7,5 20,2 12,9 8,3 2 1 22 12 S 20 0 0,0
22.04.2018 18:00:00 21,7 5,6 21,7 12,7 8,2 7 4 17 9 WSW 20 0 0,0
22.04.2018 17:00:00 23,2 2,6 27,6 12,6 8,3 4 2 18 10 N 20 60 0,0
22.04.2018 16:00:00 22,8 6,1 25,2 12,4 8,3 9 5 22 12 NW 20 15 0,0
22.04.2018 15:00:00 22,9 4,9 25,8 12,3 8,2 3 2 23 12 ENE 20 22 0,0
22.04.2018 14:00:00 23,2 3,2 30,2 12,2 8,2 3 2 15 8 NNW 20 60 0,0
22.04.2018 13:00:00 22,3 1,9 28,9 12,2 8,2 6 3 19 11 S 20 60 0,0
22.04.2018 12:00:00 21,4 4,5 27,1 12,3 8,2 8 4 15 8 SSW 20 60 0,0
22.04.2018 11:00:00 18,6 7,4 24,3 12,3 8,2 5 3 12 6 ESE 20 60 0,0
22.04.2018 10:00:00 16,2 6,9 16,1 12,5 8,2 4 2 8 5 E 20 60 0,0
22.04.2018 09:00:00 12,3 4,8 8,5 12,6 8,2 3 2 16 9 WNW 20 60 0,0
22.04.2018 08:00:00 8,1 5,2 2,6 12,7 8,2 4 2 16 8 E 20 49 0,0
22.04.2018 07:00:00 5,6 2,2 0,8 12,8 8,2 5 3 9 5 NW 20 0 0,0
22.04.2018 06:00:00 5,4 2,4 2,7 12,9 8,2 6 3 9 5 SW 20 0 0,0
22.04.2018 05:00:00 6,4 2,7 2,8 13,0 8,2 4 2 9 5 W 20 0 0,0
22.04.2018 04:00:00 5,9 2,9 2,1 13,1 8,2 3 2 13 7 S 20 0 0,0
22.04.2018 03:00:00 7,0 2,9 3,6 13,2 8,2 5 3 12 6 W 20 0 0,0
22.04.2018 02:00:00 7,2 2,7 4,0 13,3 8,2 4 2 9 5 W 20 0 0,0
22.04.2018 01:00:00 8,2 3,0 5,0 13,3 8,2 4 2 11 6 SW 20 0 0,0
22.04.2018 00:00:00 10,6 3,4 6,4 13,3 8,1 9 5 12 6 SSW 20 0 0,0
21.04.2018 23:00:00 12,0 3,0 8,2 13,3 8,1 5 3 11 6 SW 20 0 0,0
21.04.2018 22:00:00 14,8 3,0 10,6 13,3 8,2 9 5 22 12 SSW 20 0 0,0
21.04.2018 21:00:00 15,3 3,7 11,6 13,1 8,1 8 4 19 10 S 20 2 0,0
21.04.2018 20:00:00 18,8 4,9 17,6 13,0 8,1 11 6 23 12 S 20 60 0,0
21.04.2018 19:00:00 21,8 5,2 23,6 12,8 8,1 13 7 26 14 S 20 60 0,0
21.04.2018 18:00:00 23,3 3,2 27,2 12,7 8,1 11 6 24 13 S 20 60 0,0
21.04.2018 17:00:00 23,9 3,8 28,8 12,5 8,1 12 6 28 15 S 20 60 0,0
21.04.2018 16:00:00 24,0 1,0 28,2 12,3 8,1 13 7 30 16 S 20 60 0,0
21.04.2018 15:00:00 23,4 6,6 29,5 12,2 8,1 10 5 23 12 E 20 60 0,0
21.04.2018 14:00:00 22,8 6,5 29,1 12,1 8,1 8 5 19 10 SE 20 60 0,0
21.04.2018 13:00:00 22,0 6,6 29,4 12,1 8,1 8 4 16 8 SE 20 60 0,0
21.04.2018 12:00:00 20,4 8,4 28,3 12,1 8,1 4 2 12 7 E 20 60 0,0
21.04.2018 11:00:00 17,9 9,0 24,4 12,2 8,1 2 1 8 4 NE 20 60 0,0
21.04.2018 10:00:00 15,1 8,6 17,2 12,3 8,1 3 1 7 4 E 20 60 0,0
21.04.2018 09:00:00 12,8 7,2 10,7 12,4 8,0 3 2 5 3 E 20 60 0,0
21.04.2018 08:00:00 8,6 6,2 4,2 12,5 8,0 0 0 6 3 N 20 48 0,0
21.04.2018 07:00:00 6,0 4,0 3,6 12,6 8,0 5 3 8 4 SW 20 0 0,0
21.04.2018 06:00:00 5,9 3,9 2,6 12,7 8,0 3 2 6 4 W 20 0 0,0
21.04.2018 05:00:00 7,0 4,6 4,8 12,8 8,0 5 3 8 5 SW 20 0 0,0
21.04.2018 04:00:00 7,2 4,8 4,9 12,8 8,0 5 3 7 4 SW 20 0 0,0
21.04.2018 03:00:00 7,6 5,2 4,5 12,9 8,0 2 1 10 5 WSW 20 0 0,0
21.04.2018 02:00:00 9,2 5,7 7,1 12,9 8,0 9 5 10 5 WSW 20 0 0,0
21.04.2018 01:00:00 9,8 6,1 7,5 12,9 8,0 6 4 10 5 SW 20 0 0,0
21.04.2018 00:00:00 11,0 6,3 8,9 12,9 8,0 6 4 11 6 SW 20 0 0,0
20.04.2018 23:00:00 11,8 6,5 9,7 12,9 8,0 7 4 10 5 SW 20 0 0,0
20.04.2018 22:00:00 13,6 6,9 11,6 12,8 8,0 7 4 11 6 SW 20 0 0,0
20.04.2018 21:00:00 16,2 7,7 12,3 12,7 8,0 0 0 10 5 N 20 0 0,0
20.04.2018 20:00:00 19,5 7,2 16,5 12,5 8,0 7 4 16 9 ENE 20 28 0,0
20.04.2018 19:00:00 21,5 9,4 20,6 12,3 8,0 10 5 19 11 ENE 20 50 0,0
20.04.2018 18:00:00 22,9 9,7 23,7 12,1 8,0 14 8 22 12 ENE 20 47 0,0
20.04.2018 17:00:00 22,9 8,6 21,8 11,9 7,9 2 1 18 10 S 20 32 0,0
20.04.2018 16:00:00 23,4 9,4 28,5 11,7 7,9 5 3 20 11 SSW 20 60 0,0
20.04.2018 15:00:00 22,4 7,0 30,0 11,6 7,9 6 3 15 8 ESE 20 60 0,0
20.04.2018 14:00:00 22,2 9,0 30,0 11,5 7,9 6 3 13 7 WSW 20 60 0,0
20.04.2018 13:00:00 21,0 8,6 28,8 11,4 7,9 4 2 14 8 ESE 20 60 0,0
20.04.2018 12:00:00 20,3 9,5 26,6 11,5 7,9 5 3 11 6 E 20 60 0,0
20.04.2018 11:00:00 17,8 8,6 24,2 11,5 7,9 4 2 9 5 E 20 60 0,0
20.04.2018 10:00:00 14,8 8,3 16,7 11,6 7,9 3 2 8 4 ENE 20 60 0,0
20.04.2018 09:00:00 11,5 6,2 9,9 11,7 7,9 2 1 5 3 SE 20 60 0,0
20.04.2018 08:00:00 8,1 5,0 4,0 11,9 7,9 0 0 8 4 N 20 46 0,0
20.04.2018 07:00:00 5,7 3,4 1,9 12,0 7,9 4 2 13 7 SSW 20 0 0,0
20.04.2018 06:00:00 5,1 2,9 2,1 12,0 7,9 3 2 6 3 SE 20 0 0,0
20.04.2018 05:00:00 5,6 2,9 2,3 12,1 7,9 0 0 7 4 N 20 0 0,0
20.04.2018 04:00:00 6,4 3,7 3,3 12,2 7,9 4 2 7 4 WSW 20 0 0,0
20.04.2018 03:00:00 7,2 4,0 4,9 12,3 7,9 7 4 9 5 SW 20 0 0,0
20.04.2018 02:00:00 7,2 4,2 4,8 12,3 7,9 6 3 8 4 WSW 20 0 0,0
20.04.2018 01:00:00 8,7 4,5 6,3 12,3 7,9 4 2 9 5 SW 20 0 0,0
20.04.2018 00:00:00 9,9 5,1 7,8 12,3 7,9 6 3 13 7 WSW 20 0 0,0
19.04.2018 23:00:00 10,9 5,4 8,7 12,2 7,8 10 5 11 6 SW 20 0 0,0
19.04.2018 22:00:00 12,1 5,7 9,8 12,1 7,8 7 4 11 6 WSW 20 0 0,0
19.04.2018 21:00:00 15,9 5,5 10,8 12,0 7,9 3 2 18 10 SW 20 0 0,0
19.04.2018 20:00:00 19,1 4,8 17,2 11,8 7,8 10 5 26 14 NE 20 58 0,0
19.04.2018 19:00:00 21,5 5,0 21,8 11,6 7,8 14 8 23 12 ENE 20 60 0,0
19.04.2018 18:00:00 22,5 5,0 21,1 11,4 7,8 11 6 18 10 NNE 20 30 0,0
19.04.2018 17:00:00 23,5 6,3 23,7 11,2 7,8 6 3 14 8 S 20 50 0,0
19.04.2018 16:00:00 22,8 5,2 26,8 11,0 7,8 9 5 20 11 NNE 20 58 0,0
19.04.2018 15:00:00 23,2 5,1 29,1 10,9 7,8 2 1 18 10 N 20 60 0,0
19.04.2018 14:00:00 21,9 4,4 28,2 10,8 7,8 10 5 19 10 SSE 20 60 0,0
19.04.2018 13:00:00 21,4 5,7 26,7 10,8 7,8 6 3 21 11 S 20 60 0,0
19.04.2018 12:00:00 19,3 8,0 26,3 10,8 7,8 8 4 16 9 SE 20 60 0,0
19.04.2018 11:00:00 17,0 8,4 23,5 10,9 7,8 3 2 8 4 ENE 7 60 0,0
19.04.2018 10:00:00 14,3 7,6 17,7 10,9 7,8 0 0 11 6 N 20 60 0,0
19.04.2018 09:00:00 12,2 7,7 9,9 11,0 7,8 0 0 6 3 N 20 60 0,0
19.04.2018 08:00:00 7,6 5,9 3,1 11,1 7,8 0 0 7 4 N 19 44 0,0
19.04.2018 07:00:00 5,9 4,2 3,4 11,3 7,8 5 3 12 6 SW 20 0 0,0
19.04.2018 06:00:00 5,5 4,0 2,8 11,3 7,8 4 2 9 5 W 20 0 0,0
19.04.2018 05:00:00 6,2 4,5 3,7 11,4 7,8 4 2 7 4 W 20 0 0,0
19.04.2018 04:00:00 6,6 4,8 3,9 11,5 7,8 3 2 6 4 WSW 20 0 0,0
19.04.2018 03:00:00 7,5 5,1 4,1 11,5 7,8 5 3 7 4 WSW 20 0 0,0
19.04.2018 02:00:00 7,9 5,4 4,4 11,5 7,8 0 0 6 3 N 20 0 0,0
19.04.2018 01:00:00 9,2 6,1 5,9 11,5 7,8 2 1 7 4 WNW 20 0 0,0
19.04.2018 00:00:00 10,4 6,3 7,0 11,5 7,8 3 2 5 3 W 20 0 0,0
18.04.2018 23:00:00 12,2 6,7 7,9 11,4 7,7 3 1 9 5 NNW 20 0 0,0
18.04.2018 22:00:00 14,6 6,9 10,1 11,3 7,7 5 3 15 8 WSW 20 0 0,0
18.04.2018 21:00:00 14,6 6,7 11,1 11,2 7,7 5 3 12 7 SW 20 6 0,0
18.04.2018 20:00:00 17,5 8,4 15,7 11,0 7,7 7 4 22 12 S 20 36 0,0
18.04.2018 19:00:00 20,4 6,7 19,5 10,9 7,7 13 7 24 13 SSE 20 35 0,0
18.04.2018 18:00:00 22,3 7,3 22,7 10,7 7,7 12 6 25 14 SE 20 57 0,0
18.04.2018 17:00:00 22,0 5,0 26,4 10,5 7,7 14 8 30 16 ESE 20 60 0,0
18.04.2018 16:00:00 22,2 6,8 26,9 10,3 7,7 16 9 32 17 SE 20 60 0,0
18.04.2018 15:00:00 21,6 7,4 26,4 10,2 7,7 16 9 35 19 SE 20 60 0,0
18.04.2018 14:00:00 21,4 7,6 26,0 10,1 7,7 18 10 34 18 SE 20 60 0,0
18.04.2018 13:00:00 19,4 9,8 26,8 10,0 7,7 8 4 15 8 ESE 20 60 0,0
18.04.2018 12:00:00 17,4 8,5 24,8 10,1 7,7 4 2 11 6 SSE 20 60 0,0
18.04.2018 11:00:00 15,7 8,4 22,4 10,1 7,7 4 2 9 5 E 20 60 0,0
18.04.2018 10:00:00 12,8 8,5 15,2 10,3 7,7 2 1 6 3 NNE 20 60 0,0
18.04.2018 09:00:00 10,0 7,1 6,1 10,4 7,7 3 2 5 3 E 20 60 0,0
18.04.2018 08:00:00 5,7 4,5 1,4 10,4 7,7 4 2 8 5 WSW 20 37 0,0
18.04.2018 07:00:00 3,3 2,4 0,3 10,5 7,7 4 2 19 10 W 17 0 0,0
18.04.2018 06:00:00 3,9 2,9 0,7 10,6 7,7 2 1 5 3 W 20 0 0,0
18.04.2018 05:00:00 4,8 3,6 1,8 10,7 7,7 3 2 6 4 WSW 20 0 0,0
18.04.2018 04:00:00 5,8 5,1 2,1 10,7 7,7 5 3 7 4 S 20 0 0,0
18.04.2018 03:00:00 6,0 4,5 4,6 10,8 7,7 6 3 10 5 WSW 20 0 0,0
18.04.2018 02:00:00 6,5 4,8 4,7 10,8 7,7 6 4 10 5 WSW 20 0 0,0
18.04.2018 01:00:00 6,7 4,7 5,2 10,8 7,7 8 5 11 6 SW 20 0 0,0
18.04.2018 00:00:00 7,4 4,9 5,2 10,7 7,7 6 3 9 5 WSW 20 0 0,0
17.04.2018 23:00:00 8,8 5,5 6,7 10,6 7,6 7 4 9 5 WSW 20 0 0,0
17.04.2018 22:00:00 9,8 5,6 7,4 10,6 7,6 4 2 8 4 W 20 0 0,0
17.04.2018 21:00:00 13,7 5,8 7,9 10,4 7,6 6 3 9 5 N 20 0 0,0
17.04.2018 20:00:00 16,0 6,1 14,8 10,3 7,6 7 4 16 9 NE 20 55 0,0
17.04.2018 19:00:00 17,5 6,1 17,8 10,1 7,6 11 6 18 10 ENE 20 52 0,0
17.04.2018 18:00:00 18,7 4,1 23,6 9,9 7,6 8 5 24 13 NNE 20 60 0,0
17.04.2018 17:00:00 18,7 4,1 23,9 9,7 7,6 9 5 22 12 NNE 20 60 0,0
17.04.2018 16:00:00 18,4 5,2 23,6 9,6 7,6 11 6 23 12 NE 20 60 0,0
17.04.2018 15:00:00 17,5 6,1 23,6 9,5 7,6 10 5 23 12 E 20 60 0,0
17.04.2018 14:00:00 16,7 6,5 22,1 9,4 7,6 14 8 26 14 ENE 20 60 0,0
17.04.2018 13:00:00 15,0 6,3 21,0 9,4 7,6 10 5 20 11 NE 20 60 0,0
17.04.2018 12:00:00 13,5 6,1 19,3 9,4 7,6 10 6 23 12 E 20 60 0,0
17.04.2018 11:00:00 12,0 6,1 18,9 9,5 7,6 5 3 13 7 E 20 60 0,0
17.04.2018 10:00:00 10,3 5,3 13,4 9,6 7,6 0 0 5 3 N 20 60 0,0
17.04.2018 09:00:00 6,9 5,0 3,2 9,7 7,6 0 0 3 2 N 20 60 0,0
17.04.2018 08:00:00 3,1 2,7 -1,6 9,8 7,6 0 0 4 2 N 16 41 0,0
17.04.2018 07:00:00 1,9 1,3 -1,4 9,9 7,6 0 0 11 6 N 13 0 0,0
17.04.2018 06:00:00 3,0 2,3 -0,6 10,1 7,6 2 1 9 5 W 16 0 0,0
17.04.2018 05:00:00 2,2 1,5 0,2 10,1 7,6 5 3 9 5 SW 20 0 0,0
17.04.2018 04:00:00 2,6 1,9 -0,6 10,2 7,6 2 1 5 3 W 20 0 0,0
17.04.2018 03:00:00 3,3 2,6 -0,2 10,3 7,6 0 0 8 4 N 20 0 0,0

tt = Température de l'air
td = dewpoint
tt 5cm = Température de l'air 5cm
tt -20cm = Température de l'air -20cm
tt -100cm = Température de l'air -100cm
ff = Vitesse du vent
fx = gusts
dd = Direction du vent
vv = visibility
sd = Ensoleillement
rr = Quantités de précipitations

stations d'obs. à proximité